createdAt,value
2023-12-15T00:02:26.280Z,0.15
2023-12-15T00:08:26.242Z,0.50
2023-12-15T00:14:26.361Z,0.03
2023-12-15T00:20:26.318Z,0.00
2023-12-15T00:26:26.321Z,0.09
2023-12-15T00:32:26.364Z,1.25
2023-12-15T00:38:26.341Z,1.80
2023-12-15T00:44:26.421Z,1.61
2023-12-15T00:50:26.361Z,1.25
2023-12-15T00:56:26.353Z,1.19
2023-12-15T01:02:26.392Z,0.16
2023-12-15T01:08:26.343Z,0.07
2023-12-15T01:14:26.299Z,0.65
2023-12-15T01:20:26.432Z,0.30
2023-12-15T01:26:26.356Z,0.62
2023-12-15T01:32:26.383Z,0.04
2023-12-15T01:38:26.414Z,0.33
2023-12-15T01:44:26.336Z,0.50
2023-12-15T01:50:26.691Z,0.17
2023-12-15T01:56:26.349Z,0.01
2023-12-15T02:02:26.367Z,0.33
2023-12-15T02:08:26.351Z,0.82
2023-12-15T02:14:26.367Z,0.87
2023-12-15T02:20:26.456Z,1.33
2023-12-15T02:26:26.369Z,1.13
2023-12-15T02:32:26.379Z,0.72
2023-12-15T02:38:26.372Z,0.24
2023-12-15T02:44:26.420Z,0.05
2023-12-15T02:50:26.411Z,0.00
2023-12-15T02:56:26.485Z,0.00
2023-12-15T03:02:26.508Z,0.00
2023-12-15T03:08:26.406Z,0.63
2023-12-15T03:14:26.450Z,0.50
2023-12-15T03:20:26.398Z,1.05
2023-12-15T03:26:26.438Z,1.63
2023-12-15T03:32:26.506Z,0.25
2023-12-15T03:38:26.486Z,0.57
2023-12-15T03:44:26.499Z,0.45
2023-12-15T03:50:26.532Z,0.29
2023-12-15T03:56:26.668Z,1.08
2023-12-15T04:02:26.514Z,1.29
2023-12-15T04:08:26.474Z,1.10
2023-12-15T04:14:26.459Z,0.59
2023-12-15T04:20:26.511Z,0.12
2023-12-15T04:26:26.431Z,0.59
2023-12-15T04:32:26.499Z,0.53
2023-12-15T04:38:26.474Z,0.81
2023-12-15T04:44:26.509Z,0.99
2023-12-15T04:50:26.508Z,0.65
2023-12-15T04:56:26.561Z,0.56
2023-12-15T05:02:26.551Z,0.67
2023-12-15T05:08:26.471Z,1.51
2023-12-15T05:14:26.543Z,1.77
2023-12-15T05:20:26.556Z,2.44
2023-12-15T05:26:26.511Z,2.41
2023-12-15T05:32:26.584Z,1.63
2023-12-15T05:38:26.621Z,1.65
2023-12-15T05:44:26.600Z,0.38
2023-12-15T05:50:26.602Z,0.77
2023-12-15T05:56:26.663Z,0.87
2023-12-15T06:02:26.590Z,1.31
2023-12-15T06:08:26.631Z,1.01
2023-12-15T06:14:26.655Z,0.68
2023-12-15T06:20:26.582Z,0.93
2023-12-15T06:26:26.680Z,0.13
2023-12-15T06:32:26.657Z,0.91
2023-12-15T06:38:26.602Z,0.70
2023-12-15T06:44:26.634Z,0.27
2023-12-15T06:50:26.567Z,0.95
2023-12-15T06:56:26.700Z,0.62
2023-12-15T07:02:26.632Z,0.77
2023-12-15T07:08:26.618Z,0.46
2023-12-15T07:14:26.647Z,0.98
2023-12-15T07:20:26.758Z,0.96
2023-12-15T07:26:26.627Z,0.45
2023-12-15T07:32:26.765Z,0.51
2023-12-15T07:38:26.666Z,1.41
2023-12-15T07:44:26.730Z,0.84
2023-12-15T07:50:29.127Z,1.02
2023-12-15T07:56:26.639Z,1.13
2023-12-15T08:02:26.673Z,1.62
2023-12-15T08:08:26.748Z,0.81
2023-12-15T08:14:26.694Z,0.98
2023-12-15T08:20:26.714Z,1.16
2023-12-15T08:26:26.700Z,2.99
2023-12-15T08:32:26.782Z,3.13
2023-12-15T08:38:26.748Z,2.01
2023-12-15T08:44:32.065Z,0.41
2023-12-15T08:50:26.652Z,1.75
2023-12-15T08:56:26.731Z,1.65
2023-12-15T09:02:26.666Z,0.97
2023-12-15T09:08:26.783Z,0.80
2023-12-15T09:14:26.763Z,0.83
2023-12-15T09:20:26.735Z,1.05
2023-12-15T09:26:26.872Z,1.81
2023-12-15T09:32:26.765Z,0.69
2023-12-15T09:38:26.726Z,0.70
2023-12-15T09:44:26.723Z,0.32
2023-12-15T09:50:26.818Z,0.60
2023-12-15T09:56:27.032Z,1.14
2023-12-15T10:02:28.021Z,1.39
2023-12-15T10:08:26.788Z,1.02
2023-12-15T10:14:27.190Z,1.40
2023-12-15T10:20:26.973Z,2.24
2023-12-15T10:26:26.788Z,1.23
2023-12-15T10:32:26.877Z,1.00
2023-12-15T10:38:26.764Z,1.65
2023-12-15T10:44:26.771Z,0.23
2023-12-15T10:50:26.808Z,1.25
2023-12-15T10:56:26.803Z,1.98
2023-12-15T11:02:26.781Z,1.53
2023-12-15T11:08:26.813Z,1.24
2023-12-15T11:14:26.794Z,0.22
2023-12-15T11:20:26.816Z,0.62
2023-12-15T11:26:26.878Z,1.12
2023-12-15T11:32:26.814Z,0.89
2023-12-15T11:38:26.858Z,1.17
2023-12-15T11:44:26.801Z,2.14
2023-12-15T11:50:26.814Z,1.34
2023-12-15T11:56:26.810Z,0.80
2023-12-15T12:02:26.793Z,1.16
2023-12-15T12:08:26.830Z,1.52
2023-12-15T12:14:26.865Z,1.37
2023-12-15T12:20:26.881Z,0.55
2023-12-15T12:26:26.844Z,0.92
2023-12-15T12:32:26.881Z,0.88
2023-12-15T12:38:26.825Z,0.98
2023-12-15T12:44:26.896Z,1.03
2023-12-15T12:50:26.920Z,0.42
2023-12-15T12:56:26.874Z,0.94
2023-12-15T13:02:26.941Z,0.42
2023-12-15T13:08:26.991Z,0.62
2023-12-15T13:14:26.938Z,1.52
2023-12-15T13:20:26.987Z,1.20
2023-12-15T13:26:26.910Z,0.79
2023-12-15T13:32:26.936Z,1.22
2023-12-15T13:38:26.924Z,1.07
2023-12-15T13:44:26.901Z,1.14
2023-12-15T13:50:27.109Z,1.28
2023-12-15T13:56:26.914Z,1.74
2023-12-15T14:02:26.869Z,1.06
2023-12-15T14:08:26.964Z,0.76
2023-12-15T14:14:26.905Z,1.10
2023-12-15T14:20:26.913Z,1.59
2023-12-15T14:26:26.911Z,1.84
2023-12-15T14:32:27.042Z,0.98
2023-12-15T14:38:26.884Z,1.42
2023-12-15T14:44:26.996Z,0.78
2023-12-15T14:50:27.045Z,1.20
2023-12-15T14:56:26.973Z,1.55
2023-12-15T15:02:26.976Z,0.91
2023-12-15T15:08:27.038Z,0.98
2023-12-15T15:14:27.318Z,1.24
2023-12-15T15:20:26.998Z,0.97
2023-12-15T15:26:27.037Z,0.87
2023-12-15T15:32:27.081Z,1.27
2023-12-15T15:38:26.988Z,1.28
2023-12-15T15:44:26.949Z,1.47
2023-12-15T15:50:26.998Z,1.43
2023-12-15T15:56:26.976Z,0.89
2023-12-15T16:02:27.213Z,0.56
2023-12-15T16:08:27.017Z,0.75
2023-12-15T16:14:26.989Z,0.76
2023-12-15T16:20:27.026Z,0.24
2023-12-15T16:26:27.010Z,0.60
2023-12-15T16:32:27.070Z,1.36
2023-12-15T16:38:26.991Z,1.15
2023-12-15T16:44:26.961Z,1.31
2023-12-15T16:50:27.058Z,0.81
2023-12-15T16:56:27.030Z,1.25
2023-12-15T17:02:27.046Z,1.19
2023-12-15T17:08:27.035Z,1.39
2023-12-15T17:14:27.013Z,0.92
2023-12-15T17:20:27.110Z,0.53
2023-12-15T17:26:27.050Z,1.12
2023-12-15T17:32:27.118Z,1.20
2023-12-15T17:38:27.049Z,0.78
2023-12-15T17:44:27.035Z,0.33
2023-12-15T17:50:27.357Z,0.01
2023-12-15T17:56:27.102Z,0.07
2023-12-15T18:02:27.125Z,0.12
2023-12-15T18:08:27.117Z,0.68
2023-12-15T18:14:27.086Z,0.90
2023-12-15T18:20:27.116Z,1.21
2023-12-15T18:26:27.154Z,0.21
2023-12-15T18:32:27.129Z,0.10
2023-12-15T18:38:27.136Z,0.27
2023-12-15T18:44:27.116Z,0.01
2023-12-15T18:50:27.113Z,0.16
2023-12-15T18:56:27.132Z,0.00
2023-12-15T19:02:27.119Z,0.00
2023-12-15T19:08:27.095Z,0.00
2023-12-15T19:14:27.133Z,0.00
2023-12-15T19:20:27.159Z,0.13
2023-12-15T19:26:27.153Z,0.14
2023-12-15T19:32:27.181Z,0.07
2023-12-15T19:38:27.167Z,0.01
2023-12-15T19:44:27.157Z,0.00
2023-12-15T19:50:27.162Z,0.00
2023-12-15T19:56:27.162Z,0.00
2023-12-15T20:02:27.202Z,0.00
2023-12-15T20:08:27.171Z,0.04
2023-12-15T20:14:27.169Z,0.01
2023-12-15T20:20:27.153Z,0.01
2023-12-15T20:26:27.190Z,0.00
2023-12-15T20:32:27.213Z,0.01
2023-12-15T20:38:27.208Z,0.00
2023-12-15T20:44:27.190Z,0.07
2023-12-15T20:50:27.223Z,0.03
2023-12-15T20:56:27.215Z,0.01
2023-12-15T21:02:27.229Z,0.00
2023-12-15T21:08:27.289Z,0.09
2023-12-15T21:14:27.247Z,0.25
2023-12-15T21:20:27.253Z,0.16
2023-12-15T21:26:27.252Z,0.60
2023-12-15T21:32:27.254Z,0.73
2023-12-15T21:38:27.242Z,0.82
2023-12-15T21:44:27.233Z,0.79
2023-12-15T21:50:27.256Z,0.78
2023-12-15T21:56:27.233Z,0.21
2023-12-15T22:02:27.234Z,0.55
2023-12-15T22:08:27.302Z,0.21
2023-12-15T22:14:35.677Z,0.78
2023-12-15T22:20:27.295Z,1.25
2023-12-15T22:26:27.264Z,1.53
2023-12-15T22:32:27.268Z,0.90
2023-12-15T22:38:27.266Z,0.79
2023-12-15T22:44:27.292Z,0.24
2023-12-15T22:50:27.308Z,0.12
2023-12-15T22:56:27.295Z,0.27
2023-12-15T23:02:27.335Z,0.00
2023-12-15T23:08:27.299Z,0.00
2023-12-15T23:14:27.298Z,0.00
2023-12-15T23:20:27.335Z,0.00
2023-12-15T23:26:27.361Z,0.00
2023-12-15T23:32:27.408Z,0.00
2023-12-15T23:38:27.329Z,0.00
2023-12-15T23:44:27.351Z,0.00
2023-12-15T23:50:27.389Z,0.00
2023-12-15T23:56:27.385Z,0.00
